createdAt,value
2024-03-23T00:00:05.517Z,87.10
2024-03-23T00:00:12.627Z,87.04
2024-03-23T00:00:33.503Z,86.90
2024-03-23T00:00:42.582Z,86.83
2024-03-23T00:00:52.565Z,86.83
2024-03-23T00:01:02.691Z,86.83
2024-03-23T00:01:12.731Z,86.63
2024-03-23T00:01:22.558Z,86.53
2024-03-23T00:01:42.590Z,86.32
2024-03-23T00:01:52.554Z,86.12
2024-03-23T00:02:02.603Z,86.02
2024-03-23T00:02:12.602Z,85.88
2024-03-23T00:02:22.596Z,85.81
2024-03-23T00:02:32.599Z,85.77
2024-03-23T00:02:52.601Z,85.77
2024-03-23T00:03:02.638Z,85.77
2024-03-23T00:03:12.586Z,85.77
2024-03-23T00:03:23.519Z,85.71
2024-03-23T00:03:32.615Z,85.57
2024-03-23T00:03:42.645Z,85.36
2024-03-23T00:04:02.587Z,85.06
2024-03-23T00:04:12.608Z,84.89
2024-03-23T00:04:22.547Z,84.65
2024-03-23T00:04:32.555Z,84.55
2024-03-23T00:04:42.545Z,84.65
2024-03-23T00:04:53.512Z,84.55
2024-03-23T00:05:02.582Z,84.44
2024-03-23T00:05:24.188Z,84.34
2024-03-23T00:05:32.586Z,84.24
2024-03-23T00:05:42.584Z,84.24
2024-03-23T00:05:52.575Z,84.20
2024-03-23T00:06:02.550Z,84.09
2024-03-23T00:06:12.561Z,84.03
2024-03-23T00:06:32.566Z,83.59
2024-03-23T00:06:42.628Z,83.52
2024-03-23T00:06:52.568Z,83.48
2024-03-23T00:07:02.537Z,83.62
2024-03-23T00:07:13.604Z,83.69
2024-03-23T00:07:22.567Z,83.83
2024-03-23T00:07:42.606Z,84.03
2024-03-23T00:07:52.547Z,84.00
2024-03-23T00:08:02.685Z,84.03
2024-03-23T00:08:12.558Z,84.09
2024-03-23T00:08:22.594Z,84.14
2024-03-23T00:08:32.573Z,83.95
2024-03-23T00:08:52.632Z,83.69
2024-03-23T00:09:02.535Z,83.59
2024-03-23T00:09:12.584Z,83.48
2024-03-23T00:09:22.632Z,83.38
2024-03-23T00:09:32.557Z,83.18
2024-03-23T00:09:42.571Z,83.18
2024-03-23T00:10:02.611Z,83.07
2024-03-23T00:10:13.531Z,82.97
2024-03-23T00:10:22.539Z,82.77
2024-03-23T00:10:32.600Z,82.77
2024-03-23T00:10:43.541Z,82.53
2024-03-23T00:10:52.536Z,82.15
2024-03-23T00:11:12.521Z,81.74
2024-03-23T00:11:23.547Z,81.71
2024-03-23T00:11:32.562Z,81.71
2024-03-23T00:11:43.512Z,81.85
2024-03-23T00:11:52.519Z,81.91
2024-03-23T00:12:02.515Z,81.95
2024-03-23T00:12:22.553Z,81.85
2024-03-23T00:12:32.628Z,81.65
2024-03-23T00:12:42.503Z,81.51
2024-03-23T00:12:52.562Z,81.51
2024-03-23T00:13:02.530Z,81.51
2024-03-23T00:13:12.511Z,81.71
2024-03-23T00:13:32.626Z,82.01
2024-03-23T00:13:42.590Z,82.12
2024-03-23T00:13:52.544Z,82.22
2024-03-23T00:14:02.527Z,82.32
2024-03-23T00:14:12.511Z,82.46
2024-03-23T00:14:22.527Z,82.53
2024-03-23T00:14:32.567Z,82.63
2024-03-23T00:14:52.544Z,82.67
2024-03-23T00:15:02.541Z,82.77
2024-03-23T00:15:12.515Z,82.77
2024-03-23T00:15:22.590Z,82.97
2024-03-23T00:15:32.582Z,83.07
2024-03-23T00:15:42.624Z,83.04
2024-03-23T00:16:02.501Z,83.07
2024-03-23T00:16:12.629Z,83.07
2024-03-23T00:16:22.504Z,83.18
2024-03-23T00:16:32.524Z,83.14
2024-03-23T00:16:42.574Z,83.14
2024-03-23T00:16:52.507Z,83.28
2024-03-23T00:17:12.483Z,83.42
2024-03-23T00:17:22.548Z,83.59
2024-03-23T00:17:33.080Z,83.73
2024-03-23T00:17:42.489Z,83.79
2024-03-23T00:17:52.516Z,83.83
2024-03-23T00:18:02.510Z,84.00
2024-03-23T00:18:12.495Z,84.09
2024-03-23T00:18:22.549Z,84.24
2024-03-23T00:18:42.495Z,84.41
2024-03-23T00:18:52.481Z,84.55
2024-03-23T00:19:02.512Z,84.61
2024-03-23T00:19:12.540Z,84.71
2024-03-23T00:19:22.608Z,84.50
2024-03-23T00:19:32.498Z,84.41
2024-03-23T00:19:42.570Z,84.65
2024-03-23T00:20:02.492Z,84.44
2024-03-23T00:20:12.506Z,84.14
2024-03-23T00:20:22.470Z,83.93
2024-03-23T00:20:32.528Z,83.73
2024-03-23T00:20:42.499Z,83.73
2024-03-23T00:20:52.552Z,83.62
2024-03-23T00:21:02.484Z,83.62
2024-03-23T00:21:22.527Z,83.52
2024-03-23T00:21:32.482Z,83.73
2024-03-23T00:21:43.078Z,83.73
2024-03-23T00:21:52.590Z,83.83
2024-03-23T00:22:02.511Z,83.83
2024-03-23T00:22:12.543Z,83.83
2024-03-23T00:22:22.480Z,83.93
2024-03-23T00:22:32.521Z,83.93
2024-03-23T00:22:52.479Z,83.73
2024-03-23T00:23:02.506Z,83.42
2024-03-23T00:23:12.465Z,83.42
2024-03-23T00:23:22.492Z,83.42
2024-03-23T00:23:32.541Z,83.42
2024-03-23T00:23:42.460Z,83.28
2024-03-23T00:23:53.109Z,83.32
2024-03-23T00:24:13.061Z,83.48
2024-03-23T00:24:22.500Z,83.73
2024-03-23T00:24:33.062Z,83.83
2024-03-23T00:24:42.486Z,83.73
2024-03-23T00:24:52.486Z,83.73
2024-03-23T00:25:02.513Z,83.73
2024-03-23T00:25:22.504Z,83.52
2024-03-23T00:25:32.529Z,83.52
2024-03-23T00:25:42.573Z,83.59
2024-03-23T00:25:52.478Z,83.62
2024-03-23T00:26:02.650Z,83.73
2024-03-23T00:26:12.606Z,83.69
2024-03-23T00:26:22.514Z,83.73
2024-03-23T00:26:42.458Z,83.83
2024-03-23T00:26:52.482Z,83.83
2024-03-23T00:27:02.472Z,83.83
2024-03-23T00:27:13.188Z,83.83
2024-03-23T00:27:22.564Z,83.87
2024-03-23T00:27:32.457Z,83.83
2024-03-23T00:27:42.577Z,83.79
2024-03-23T00:28:02.531Z,84.00
2024-03-23T00:28:12.775Z,84.09
2024-03-23T00:28:22.517Z,84.14
2024-03-23T00:28:32.543Z,84.03
2024-03-23T00:28:42.516Z,83.93
2024-03-23T00:28:52.442Z,83.93
2024-03-23T00:29:03.027Z,83.83
2024-03-23T00:29:22.480Z,83.93
2024-03-23T00:29:32.439Z,83.93
2024-03-23T00:29:43.034Z,83.93
2024-03-23T00:29:52.443Z,83.93
2024-03-23T00:30:03.020Z,83.93
2024-03-23T00:30:12.646Z,83.93
2024-03-23T00:30:22.542Z,83.83
2024-03-23T00:30:32.472Z,83.83
2024-03-23T00:30:52.457Z,83.93
2024-03-23T00:31:02.487Z,84.07
2024-03-23T00:31:12.488Z,83.93
2024-03-23T00:31:22.460Z,83.97
2024-03-23T00:31:32.471Z,83.93
2024-03-23T00:31:42.488Z,83.93
2024-03-23T00:32:02.454Z,83.97
2024-03-23T00:32:12.643Z,83.83
2024-03-23T00:32:22.417Z,83.93
2024-03-23T00:32:32.469Z,83.93
2024-03-23T00:32:42.484Z,83.93
2024-03-23T00:32:53.035Z,84.03
2024-03-23T00:33:12.434Z,84.07
2024-03-23T00:33:23.118Z,84.14
2024-03-23T00:33:33.024Z,84.07
2024-03-23T00:33:42.439Z,84.07
2024-03-23T00:33:52.441Z,84.17
2024-03-23T00:34:02.436Z,84.17
2024-03-23T00:34:13.050Z,84.17
2024-03-23T00:34:32.410Z,84.28
2024-03-23T00:34:42.442Z,84.17
2024-03-23T00:34:52.443Z,84.17
2024-03-23T00:35:02.407Z,84.07
2024-03-23T00:35:12.474Z,84.17
2024-03-23T00:35:22.416Z,84.14
2024-03-23T00:35:32.428Z,84.17
2024-03-23T00:35:42.680Z,84.24
2024-03-23T00:35:53.009Z,84.38
2024-03-23T00:36:02.440Z,84.38
2024-03-23T00:36:13.049Z,84.58
2024-03-23T00:36:22.735Z,84.55
2024-03-23T00:36:42.472Z,84.69
2024-03-23T00:36:52.424Z,84.65
2024-03-23T00:37:02.428Z,84.69
2024-03-23T00:37:13.033Z,84.79
2024-03-23T00:37:22.402Z,84.79
2024-03-23T00:37:32.422Z,84.69
2024-03-23T00:37:52.391Z,84.65
2024-03-23T00:38:02.436Z,84.69
2024-03-23T00:38:12.585Z,84.69
2024-03-23T00:38:23.009Z,84.69
2024-03-23T00:38:32.552Z,84.65
2024-03-23T00:38:42.477Z,84.58
2024-03-23T00:38:52.428Z,84.55
2024-03-23T00:39:12.414Z,84.69
2024-03-23T00:39:22.432Z,84.69
2024-03-23T00:39:33.049Z,84.69
2024-03-23T00:39:42.464Z,84.65
2024-03-23T00:39:52.400Z,84.69
2024-03-23T00:40:02.414Z,84.79
2024-03-23T00:40:22.421Z,84.69
2024-03-23T00:40:32.504Z,84.75
2024-03-23T00:40:43.061Z,84.79
2024-03-23T00:40:52.386Z,84.89
2024-03-23T00:41:02.389Z,84.89
2024-03-23T00:41:12.485Z,84.83
2024-03-23T00:41:32.456Z,84.79
2024-03-23T00:41:42.393Z,84.79
2024-03-23T00:41:52.379Z,84.83
2024-03-23T00:42:02.493Z,84.79
2024-03-23T00:42:12.520Z,84.89
2024-03-23T00:42:22.438Z,84.79
2024-03-23T00:42:33.039Z,84.89
2024-03-23T00:42:42.500Z,85.03
2024-03-23T00:42:52.434Z,84.99
2024-03-23T00:43:03.032Z,84.99
2024-03-23T00:43:22.407Z,84.89
2024-03-23T00:43:32.368Z,84.89
2024-03-23T00:43:42.412Z,84.89
2024-03-23T00:43:52.440Z,84.99
2024-03-23T00:44:02.406Z,85.10
2024-03-23T00:44:12.398Z,85.10
2024-03-23T00:44:22.432Z,85.10
2024-03-23T00:44:32.401Z,85.10
2024-03-23T00:44:42.511Z,85.10
2024-03-23T00:45:02.407Z,85.10
2024-03-23T00:45:12.377Z,85.20
2024-03-23T00:45:22.493Z,85.10
2024-03-23T00:45:32.387Z,84.99
2024-03-23T00:45:42.522Z,84.99
2024-03-23T00:45:52.368Z,85.14
2024-03-23T00:46:13.238Z,85.10
2024-03-23T00:46:22.358Z,85.10
2024-03-23T00:46:32.382Z,85.10
2024-03-23T00:46:42.566Z,85.10
2024-03-23T00:46:52.348Z,85.14
2024-03-23T00:47:02.364Z,85.14
2024-03-23T00:47:22.355Z,85.20
2024-03-23T00:47:32.370Z,85.20
2024-03-23T00:47:42.359Z,85.24
2024-03-23T00:47:53.149Z,85.24
2024-03-23T00:48:02.371Z,85.34
2024-03-23T00:48:12.376Z,85.20
2024-03-23T00:48:22.439Z,85.24
2024-03-23T00:48:43.026Z,85.20
2024-03-23T00:48:52.449Z,85.24
2024-03-23T00:49:02.402Z,85.34
2024-03-23T00:49:12.345Z,85.24
2024-03-23T00:49:23.071Z,85.24
2024-03-23T00:49:32.459Z,85.34
2024-03-23T00:49:52.344Z,85.30
2024-03-23T00:50:02.413Z,85.30
2024-03-23T00:50:12.452Z,85.24
2024-03-23T00:50:22.390Z,85.20
2024-03-23T00:50:32.356Z,85.34
2024-03-23T00:50:42.391Z,85.34
2024-03-23T00:50:52.482Z,85.34
2024-03-23T00:51:02.565Z,85.30
2024-03-23T00:51:13.050Z,85.24
2024-03-23T00:51:32.348Z,85.30
2024-03-23T00:51:42.363Z,85.34
2024-03-23T00:51:52.420Z,85.30
2024-03-23T00:52:02.436Z,85.34
2024-03-23T00:52:12.329Z,85.24
2024-03-23T00:52:22.356Z,85.30
2024-03-23T00:52:42.387Z,85.24
2024-03-23T00:52:53.157Z,85.24
2024-03-23T00:53:02.472Z,85.24
2024-03-23T00:53:12.334Z,85.20
2024-03-23T00:53:22.401Z,85.34
2024-03-23T00:53:32.366Z,85.30
2024-03-23T00:53:52.370Z,85.24
2024-03-23T00:54:02.359Z,85.24
2024-03-23T00:54:13.110Z,85.34
2024-03-23T00:54:22.357Z,85.40
2024-03-23T00:54:32.479Z,85.44
2024-03-23T00:54:43.069Z,85.34
2024-03-23T00:54:52.388Z,85.34
2024-03-23T00:55:02.496Z,85.30
2024-03-23T00:55:22.351Z,85.44
2024-03-23T00:55:32.324Z,85.40
2024-03-23T00:55:42.367Z,85.44
2024-03-23T00:55:53.036Z,85.55
2024-03-23T00:56:02.364Z,85.40
2024-03-23T00:56:12.356Z,85.55
2024-03-23T00:56:32.537Z,85.44
2024-03-23T00:56:42.332Z,85.50
2024-03-23T00:56:52.385Z,85.55
2024-03-23T00:57:02.364Z,85.44
2024-03-23T00:57:12.321Z,85.40
2024-03-23T00:57:22.344Z,85.55
2024-03-23T00:57:42.367Z,85.55
2024-03-23T00:57:52.393Z,85.40
2024-03-23T00:58:02.301Z,85.55
2024-03-23T00:58:12.407Z,85.55
2024-03-23T00:58:22.313Z,85.64
2024-03-23T00:58:32.313Z,85.55
2024-03-23T00:58:52.316Z,85.55
2024-03-23T00:59:02.309Z,85.50
2024-03-23T00:59:12.383Z,85.55
2024-03-23T00:59:22.310Z,85.55
2024-03-23T00:59:32.310Z,85.50
2024-03-23T00:59:42.309Z,85.61
2024-03-23T01:00:02.337Z,85.61
2024-03-23T01:00:12.412Z,85.64
2024-03-23T01:00:22.328Z,85.61
2024-03-23T01:00:32.368Z,85.71
2024-03-23T01:00:42.288Z,85.75
2024-03-23T01:00:52.338Z,85.81
2024-03-23T01:01:13.035Z,85.81
2024-03-23T01:01:22.299Z,85.96
2024-03-23T01:01:32.346Z,85.81
2024-03-23T01:01:42.294Z,85.91
2024-03-23T01:01:52.299Z,85.96
2024-03-23T01:02:02.291Z,86.05
2024-03-23T01:02:22.311Z,86.05
2024-03-23T01:02:32.301Z,86.05
2024-03-23T01:02:42.303Z,86.16
2024-03-23T01:02:52.306Z,86.16
2024-03-23T01:03:02.282Z,86.26
2024-03-23T01:03:12.300Z,86.26
2024-03-23T01:03:22.440Z,86.26
2024-03-23T01:03:42.306Z,86.26
2024-03-23T01:03:52.348Z,86.26
2024-03-23T01:04:02.284Z,86.36
2024-03-23T01:04:12.277Z,86.32
2024-03-23T01:04:22.344Z,86.36
2024-03-23T01:04:32.281Z,86.36
2024-03-23T01:04:42.314Z,86.32
2024-03-23T01:04:52.273Z,86.36
2024-03-23T01:05:02.292Z,86.36
2024-03-23T01:05:12.282Z,86.36
2024-03-23T01:05:23.069Z,86.36
2024-03-23T01:05:32.289Z,86.46
2024-03-23T01:05:52.292Z,86.46
2024-03-23T01:06:03.039Z,86.57
2024-03-23T01:06:13.039Z,86.57
2024-03-23T01:06:22.287Z,86.67
2024-03-23T01:06:32.288Z,86.67
2024-03-23T01:06:42.424Z,86.77
2024-03-23T01:07:02.300Z,86.67
2024-03-23T01:07:12.267Z,86.77
2024-03-23T01:07:22.608Z,86.81
2024-03-23T01:07:32.365Z,86.77
2024-03-23T01:07:42.263Z,86.88
2024-03-23T01:07:52.279Z,86.88
2024-03-23T01:08:02.328Z,86.88
2024-03-23T01:08:12.395Z,86.88
2024-03-23T01:08:32.286Z,87.04
2024-03-23T01:08:42.345Z,87.08
2024-03-23T01:08:52.269Z,87.08
2024-03-23T01:09:02.269Z,87.18
2024-03-23T01:09:12.295Z,87.18
2024-03-23T01:09:22.307Z,87.29
2024-03-23T01:09:33.081Z,87.38
2024-03-23T01:09:52.293Z,87.59
2024-03-23T01:10:02.303Z,87.49
2024-03-23T01:10:12.328Z,87.59
2024-03-23T01:10:22.260Z,87.63
2024-03-23T01:10:32.354Z,87.70
2024-03-23T01:10:42.270Z,87.73
2024-03-23T01:10:52.252Z,87.73
2024-03-23T01:11:12.251Z,87.94
2024-03-23T01:11:22.288Z,87.94
2024-03-23T01:11:33.165Z,87.90
2024-03-23T01:11:42.361Z,88.04
2024-03-23T01:11:52.259Z,88.04
2024-03-23T01:12:02.327Z,88.04
2024-03-23T01:12:12.263Z,88.14
2024-03-23T01:12:22.319Z,88.14
2024-03-23T01:12:33.167Z,88.14
2024-03-23T01:12:52.298Z,88.24
2024-03-23T01:13:02.245Z,88.29
2024-03-23T01:13:12.266Z,88.24
2024-03-23T01:13:22.343Z,88.35
2024-03-23T01:13:32.241Z,88.45
2024-03-23T01:13:42.295Z,88.49
2024-03-23T01:13:52.381Z,88.59
2024-03-23T01:14:13.046Z,88.65
2024-03-23T01:14:22.279Z,88.65
2024-03-23T01:14:32.276Z,88.65
2024-03-23T01:14:42.269Z,88.76
2024-03-23T01:14:52.256Z,88.76
2024-03-23T01:15:02.246Z,88.86
2024-03-23T01:15:22.321Z,89.00
2024-03-23T01:15:32.247Z,89.11
2024-03-23T01:15:42.270Z,89.11
2024-03-23T01:15:52.402Z,89.31
2024-03-23T01:16:02.245Z,89.31
2024-03-23T01:16:12.253Z,89.27
2024-03-23T01:16:22.329Z,89.31
2024-03-23T01:16:42.244Z,89.27
2024-03-23T01:16:52.309Z,89.37
2024-03-23T01:17:02.222Z,89.37
2024-03-23T01:17:12.251Z,89.42
2024-03-23T01:17:22.281Z,89.51
2024-03-23T01:17:32.263Z,89.51
2024-03-23T01:17:42.591Z,89.47
2024-03-23T01:17:53.017Z,89.51
2024-03-23T01:18:12.337Z,89.58
2024-03-23T01:18:22.268Z,89.62
2024-03-23T01:18:32.288Z,89.62
2024-03-23T01:18:42.210Z,89.72
2024-03-23T01:18:52.382Z,89.72
2024-03-23T01:19:02.236Z,89.83
2024-03-23T01:19:12.285Z,89.83
2024-03-23T01:19:32.354Z,89.83
2024-03-23T01:19:42.224Z,89.92
2024-03-23T01:19:53.069Z,89.92
2024-03-23T01:20:02.396Z,90.03
2024-03-23T01:20:12.224Z,90.03
2024-03-23T01:20:22.262Z,90.03
2024-03-23T01:20:42.228Z,90.03
2024-03-23T01:20:53.075Z,90.03
2024-03-23T01:21:02.227Z,90.03
2024-03-23T01:21:12.205Z,90.13
2024-03-23T01:21:22.460Z,90.03
2024-03-23T01:21:32.416Z,90.13
2024-03-23T01:21:42.230Z,90.13
2024-03-23T01:22:02.271Z,90.23
2024-03-23T01:22:12.346Z,90.23
2024-03-23T01:22:22.315Z,90.23
2024-03-23T01:22:32.218Z,90.37
2024-03-23T01:22:42.190Z,90.34
2024-03-23T01:22:52.231Z,90.34
2024-03-23T01:23:12.352Z,90.54
2024-03-23T01:23:22.229Z,90.58
2024-03-23T01:23:32.193Z,90.54
2024-03-23T01:23:42.191Z,90.54
2024-03-23T01:23:52.216Z,90.54
2024-03-23T01:24:03.077Z,90.69
2024-03-23T01:24:22.213Z,90.69
2024-03-23T01:24:32.196Z,90.54
2024-03-23T01:24:42.212Z,90.64
2024-03-23T01:24:52.202Z,90.75
2024-03-23T01:25:02.198Z,90.64
2024-03-23T01:25:12.203Z,90.69
2024-03-23T01:25:32.194Z,90.64
2024-03-23T01:25:42.178Z,90.64
2024-03-23T01:25:52.213Z,90.75
2024-03-23T01:26:02.219Z,90.75
2024-03-23T01:26:12.377Z,90.75
2024-03-23T01:26:22.367Z,90.84
2024-03-23T01:26:33.037Z,90.89
2024-03-23T01:26:42.186Z,90.75
2024-03-23T01:26:52.249Z,90.84
2024-03-23T01:27:02.244Z,90.95
2024-03-23T01:27:22.214Z,90.89
2024-03-23T01:27:32.203Z,90.84
2024-03-23T01:27:42.164Z,90.89
2024-03-23T01:27:52.192Z,90.95
2024-03-23T01:28:02.254Z,90.99
2024-03-23T01:28:13.098Z,91.09
2024-03-23T01:28:22.321Z,91.09
2024-03-23T01:28:42.172Z,90.99
2024-03-23T01:28:53.051Z,91.09
2024-03-23T01:29:02.261Z,91.05
2024-03-23T01:29:12.281Z,91.09
2024-03-23T01:29:22.187Z,91.09
2024-03-23T01:29:33.188Z,91.09
2024-03-23T01:29:42.186Z,91.14
2024-03-23T01:30:02.174Z,91.16
2024-03-23T01:30:12.166Z,91.16
2024-03-23T01:30:22.284Z,91.30
2024-03-23T01:30:32.168Z,91.20
2024-03-23T01:30:42.202Z,91.30
2024-03-23T01:30:52.206Z,91.40
2024-03-23T01:31:12.223Z,91.30
2024-03-23T01:31:22.202Z,91.36
2024-03-23T01:31:32.216Z,91.40
2024-03-23T01:31:42.165Z,91.50
2024-03-23T01:31:52.178Z,91.50
2024-03-23T01:32:02.177Z,91.50
2024-03-23T01:32:22.210Z,91.50
2024-03-23T01:32:32.171Z,91.61
2024-03-23T01:32:42.270Z,91.61
2024-03-23T01:32:52.201Z,91.61
2024-03-23T01:33:02.154Z,91.71
2024-03-23T01:33:12.231Z,91.61
2024-03-23T01:33:32.179Z,91.71
2024-03-23T01:33:42.163Z,91.86
2024-03-23T01:33:52.178Z,91.82
2024-03-23T01:34:03.071Z,91.82
2024-03-23T01:34:12.168Z,91.82
2024-03-23T01:34:23.051Z,91.86
2024-03-23T01:34:42.163Z,91.82
2024-03-23T01:34:52.227Z,91.86
2024-03-23T01:35:02.196Z,91.91
2024-03-23T01:35:12.133Z,91.91
2024-03-23T01:35:22.166Z,91.91
2024-03-23T01:35:32.159Z,92.02
2024-03-23T01:35:42.195Z,91.96
2024-03-23T01:36:02.153Z,91.91
2024-03-23T01:36:12.152Z,92.02
2024-03-23T01:36:23.168Z,92.02
2024-03-23T01:36:32.214Z,92.02
2024-03-23T01:36:42.176Z,92.02
2024-03-23T01:36:52.170Z,92.02
2024-03-23T01:37:02.160Z,92.02
2024-03-23T01:37:12.157Z,92.06
2024-03-23T01:37:32.164Z,92.06
2024-03-23T01:37:42.145Z,92.02
2024-03-23T01:37:52.142Z,92.12
2024-03-23T01:38:02.181Z,92.16
2024-03-23T01:38:12.135Z,92.12
2024-03-23T01:38:22.186Z,92.12
2024-03-23T01:38:32.170Z,92.16
2024-03-23T01:38:52.357Z,92.27
2024-03-23T01:39:03.046Z,92.27
2024-03-23T01:39:12.129Z,92.32
2024-03-23T01:39:22.167Z,92.32
2024-03-23T01:39:32.133Z,92.22
2024-03-23T01:39:42.152Z,92.36
2024-03-23T01:40:03.071Z,92.36
2024-03-23T01:40:12.124Z,92.43
2024-03-23T01:40:22.251Z,92.47
2024-03-23T01:40:32.122Z,92.47
2024-03-23T01:40:42.231Z,92.43
2024-03-23T01:40:52.178Z,92.47
2024-03-23T01:41:12.124Z,92.53
2024-03-23T01:41:22.192Z,92.53
2024-03-23T01:41:32.200Z,92.57
2024-03-23T01:41:42.132Z,92.68
2024-03-23T01:41:52.116Z,92.68
2024-03-23T01:42:02.143Z,92.78
2024-03-23T01:42:12.239Z,92.78
2024-03-23T01:42:32.139Z,92.83
2024-03-23T01:42:43.151Z,92.88
2024-03-23T01:42:53.039Z,92.83
2024-03-23T01:43:02.112Z,92.94
2024-03-23T01:43:12.149Z,92.88
2024-03-23T01:43:22.100Z,92.98
2024-03-23T01:43:32.160Z,92.98
2024-03-23T01:43:53.071Z,92.94
2024-03-23T01:44:02.110Z,93.08
2024-03-23T01:44:12.098Z,93.08
2024-03-23T01:44:22.106Z,93.08
2024-03-23T01:44:32.121Z,93.08
2024-03-23T01:44:42.146Z,93.19
2024-03-23T01:45:02.119Z,93.19
2024-03-23T01:45:12.104Z,93.23
2024-03-23T01:45:22.104Z,93.19
2024-03-23T01:45:33.151Z,93.29
2024-03-23T01:45:42.094Z,93.29
2024-03-23T01:45:52.086Z,93.29
2024-03-23T01:46:12.083Z,93.39
2024-03-23T01:46:22.144Z,93.44
2024-03-23T01:46:32.110Z,93.49
2024-03-23T01:46:42.108Z,93.49
2024-03-23T01:46:53.142Z,93.49
2024-03-23T01:47:02.240Z,93.39
2024-03-23T01:47:22.104Z,93.49
2024-03-23T01:47:32.099Z,93.60
2024-03-23T01:47:42.169Z,93.85
2024-03-23T01:47:52.107Z,93.70
2024-03-23T01:48:02.073Z,93.80
2024-03-23T01:48:12.097Z,93.70
2024-03-23T01:48:22.238Z,93.70
2024-03-23T01:48:42.126Z,93.70
2024-03-23T01:48:55.079Z,93.85
2024-03-23T01:49:03.066Z,93.80
2024-03-23T01:49:12.071Z,93.90
2024-03-23T01:49:22.105Z,93.95
2024-03-23T01:49:32.148Z,93.95
2024-03-23T01:49:52.073Z,93.90
2024-03-23T01:50:02.090Z,94.01
2024-03-23T01:50:12.130Z,93.95
2024-03-23T01:50:22.122Z,93.90
2024-03-23T01:50:32.082Z,94.05
2024-03-23T01:50:42.095Z,94.01
2024-03-23T01:50:53.052Z,94.05
2024-03-23T01:51:02.120Z,93.95
2024-03-23T01:51:12.242Z,94.21
2024-03-23T01:51:32.110Z,94.05
2024-03-23T01:51:42.106Z,94.15
2024-03-23T01:51:52.068Z,94.26
2024-03-23T01:52:02.095Z,94.11
2024-03-23T01:52:12.098Z,94.32
2024-03-23T01:52:22.084Z,94.21
2024-03-23T01:52:42.059Z,94.36
2024-03-23T01:52:52.059Z,94.26
2024-03-23T01:53:02.074Z,94.21
2024-03-23T01:53:12.229Z,94.26
2024-03-23T01:53:22.103Z,94.46
2024-03-23T01:53:32.067Z,94.46
2024-03-23T01:53:52.105Z,94.46
2024-03-23T01:54:02.078Z,94.46
2024-03-23T01:54:12.122Z,94.46
2024-03-23T01:54:22.095Z,94.42
2024-03-23T01:54:32.117Z,94.42
2024-03-23T01:54:42.081Z,94.36
2024-03-23T01:55:02.108Z,94.36
2024-03-23T01:55:15.155Z,94.56
2024-03-23T01:55:22.044Z,94.56
2024-03-23T01:55:32.077Z,94.42
2024-03-23T01:55:42.325Z,94.46
2024-03-23T01:55:52.059Z,94.56
2024-03-23T01:56:12.077Z,94.67
2024-03-23T01:56:23.056Z,94.42
2024-03-23T01:56:32.053Z,94.67
2024-03-23T01:56:42.037Z,94.62
2024-03-23T01:56:52.061Z,94.67
2024-03-23T01:57:02.113Z,94.77
2024-03-23T01:57:12.076Z,94.62
2024-03-23T01:57:32.053Z,94.62
2024-03-23T01:57:42.052Z,94.73
2024-03-23T01:57:52.093Z,94.67
2024-03-23T01:58:02.179Z,94.83
2024-03-23T01:58:12.168Z,94.87
2024-03-23T01:58:22.064Z,94.77
2024-03-23T01:58:32.105Z,94.77
2024-03-23T01:58:42.044Z,94.77
2024-03-23T01:59:02.157Z,94.83
2024-03-23T01:59:12.043Z,94.98
2024-03-23T01:59:22.588Z,95.07
2024-03-23T01:59:32.546Z,95.07
2024-03-23T01:59:42.055Z,95.07
2024-03-23T01:59:52.039Z,95.07
2024-03-23T02:00:12.041Z,94.98
2024-03-23T02:00:22.132Z,95.18
2024-03-23T02:00:32.035Z,95.28
2024-03-23T02:00:42.564Z,95.24
2024-03-23T02:00:52.032Z,95.18
2024-03-23T02:01:02.031Z,95.14
2024-03-23T02:01:12.061Z,95.18
2024-03-23T02:01:32.238Z,95.39
2024-03-23T02:01:42.053Z,95.39
2024-03-23T02:01:52.075Z,95.39
2024-03-23T02:02:02.032Z,95.49
2024-03-23T02:02:12.075Z,95.39
2024-03-23T02:02:22.014Z,95.49
2024-03-23T02:02:32.175Z,95.39
2024-03-23T02:02:42.759Z,95.49
2024-03-23T02:03:02.032Z,95.69
2024-03-23T02:03:12.030Z,95.59
2024-03-23T02:03:22.021Z,95.69
2024-03-23T02:03:32.644Z,95.69
2024-03-23T02:03:42.161Z,95.84
2024-03-23T02:03:52.007Z,95.79
2024-03-23T02:04:12.084Z,95.79
2024-03-23T02:04:22.025Z,95.79
2024-03-23T02:04:32.063Z,95.69
2024-03-23T02:04:42.703Z,95.79
2024-03-23T02:04:52.216Z,95.84
2024-03-23T02:05:02.049Z,95.90
2024-03-23T02:05:12.600Z,96.00
2024-03-23T02:05:22.040Z,95.90
2024-03-23T02:05:32.617Z,95.90
2024-03-23T02:05:52.030Z,96.00
2024-03-23T02:06:02.276Z,96.20
2024-03-23T02:06:12.005Z,96.20
2024-03-23T02:06:22.055Z,96.31
2024-03-23T02:06:32.002Z,96.35
2024-03-23T02:06:42.005Z,96.31
2024-03-23T02:06:52.091Z,96.45
2024-03-23T02:07:12.003Z,96.41
2024-03-23T02:07:22.031Z,96.51
2024-03-23T02:07:32.066Z,96.41
2024-03-23T02:07:42.634Z,96.51
2024-03-23T02:07:52.167Z,96.41
2024-03-23T02:08:02.023Z,96.41
2024-03-23T02:08:12.004Z,96.51
2024-03-23T02:08:31.987Z,96.51
2024-03-23T02:08:42.018Z,96.41
2024-03-23T02:08:52.004Z,96.51
2024-03-23T02:09:01.996Z,96.66
2024-03-23T02:09:12.019Z,96.62
2024-03-23T02:09:22.037Z,96.51
2024-03-23T02:09:32.034Z,96.62
2024-03-23T02:09:52.572Z,96.62
2024-03-23T02:10:02.003Z,96.62
2024-03-23T02:10:12.035Z,96.62
2024-03-23T02:10:21.996Z,96.66
2024-03-23T02:10:32.001Z,96.66
2024-03-23T02:10:42.052Z,96.66
2024-03-23T02:11:01.970Z,96.72
2024-03-23T02:11:12.010Z,96.72
2024-03-23T02:11:21.977Z,96.72
2024-03-23T02:11:32.013Z,96.72
2024-03-23T02:11:41.985Z,96.72
2024-03-23T02:11:52.047Z,96.72
2024-03-23T02:12:02.265Z,96.72
2024-03-23T02:12:21.982Z,96.82
2024-03-23T02:12:32.018Z,96.87
2024-03-23T02:12:42.085Z,96.82
2024-03-23T02:12:51.984Z,96.92
2024-03-23T02:13:01.962Z,96.82
2024-03-23T02:13:11.961Z,96.92
2024-03-23T02:13:21.982Z,96.97
2024-03-23T02:13:41.996Z,96.92
2024-03-23T02:13:52.566Z,96.97
2024-03-23T02:14:02.551Z,96.92
2024-03-23T02:14:11.953Z,96.92
2024-03-23T02:14:21.978Z,96.92
2024-03-23T02:14:32.033Z,96.92
2024-03-23T02:14:51.993Z,96.97
2024-03-23T02:15:01.993Z,97.07
2024-03-23T02:15:11.955Z,96.92
2024-03-23T02:15:21.997Z,96.97
2024-03-23T02:15:31.976Z,97.03
2024-03-23T02:15:41.964Z,96.92
2024-03-23T02:16:02.544Z,97.03
2024-03-23T02:16:11.962Z,96.92
2024-03-23T02:16:22.029Z,97.03
2024-03-23T02:16:31.963Z,97.03
2024-03-23T02:16:42.017Z,97.17
2024-03-23T02:16:52.012Z,97.13
2024-03-23T02:17:11.966Z,97.17
2024-03-23T02:17:21.984Z,97.17
2024-03-23T02:17:32.009Z,97.03
2024-03-23T02:17:41.970Z,97.23
2024-03-23T02:17:51.961Z,97.17
2024-03-23T02:18:01.948Z,97.23
2024-03-23T02:18:12.180Z,97.28
2024-03-23T02:18:31.953Z,97.23
2024-03-23T02:18:41.975Z,97.28
2024-03-23T02:18:51.996Z,97.23
2024-03-23T02:19:01.967Z,97.23
2024-03-23T02:19:11.951Z,97.28
2024-03-23T02:19:22.046Z,97.23
2024-03-23T02:19:32.074Z,97.28
2024-03-23T02:19:42.022Z,97.28
2024-03-23T02:20:01.985Z,97.28
2024-03-23T02:20:12.035Z,97.23
2024-03-23T02:20:21.959Z,97.23
2024-03-23T02:20:32.041Z,97.23
2024-03-23T02:20:41.936Z,97.28
2024-03-23T02:20:51.932Z,97.28
2024-03-23T02:21:01.989Z,97.33
2024-03-23T02:21:21.999Z,97.28
2024-03-23T02:21:31.963Z,97.28
2024-03-23T02:21:42.085Z,97.38
2024-03-23T02:21:51.926Z,97.33
2024-03-23T02:22:01.966Z,97.38
2024-03-23T02:22:11.946Z,97.44
2024-03-23T02:22:22.041Z,97.44
2024-03-23T02:22:41.962Z,97.48
2024-03-23T02:22:51.945Z,97.54
2024-03-23T02:23:01.955Z,97.54
2024-03-23T02:23:11.917Z,97.58
2024-03-23T02:23:22.557Z,97.58
2024-03-23T02:23:31.974Z,97.58
2024-03-23T02:23:41.964Z,97.58
2024-03-23T02:24:02.068Z,97.54
2024-03-23T02:24:11.937Z,97.54
2024-03-23T02:24:22.572Z,97.54
2024-03-23T02:24:31.938Z,97.54
2024-03-23T02:24:41.917Z,97.69
2024-03-23T02:24:52.084Z,97.69
2024-03-23T02:25:11.911Z,97.54
2024-03-23T02:25:21.960Z,97.69
2024-03-23T02:25:31.922Z,97.58
2024-03-23T02:25:41.935Z,97.64
2024-03-23T02:25:51.930Z,97.64
2024-03-23T02:26:01.987Z,97.54
2024-03-23T02:26:11.933Z,97.58
2024-03-23T02:26:22.058Z,97.64
2024-03-23T02:26:31.902Z,97.64
2024-03-23T02:26:51.915Z,97.64
2024-03-23T02:27:01.919Z,97.69
2024-03-23T02:27:11.907Z,97.69
2024-03-23T02:27:21.993Z,97.69
2024-03-23T02:27:31.910Z,97.54